createdAt,value
2019-06-08T00:01:26.676Z,14.80
2019-06-08T00:04:00.271Z,14.90
2019-06-08T00:06:33.902Z,14.90
2019-06-08T00:09:07.566Z,14.90
2019-06-08T00:11:41.162Z,14.90
2019-06-08T00:14:15.144Z,15.00
2019-06-08T00:16:48.882Z,15.00
2019-06-08T00:19:23.567Z,15.00
2019-06-08T00:21:57.475Z,15.00
2019-06-08T00:24:31.227Z,15.10
2019-06-08T00:27:05.044Z,15.10
2019-06-08T00:33:24.877Z,15.10
2019-06-08T00:35:58.435Z,15.10
2019-06-08T00:38:32.145Z,15.10
2019-06-08T00:41:05.882Z,15.10
2019-06-08T00:43:39.959Z,15.10
2019-06-08T00:49:59.915Z,15.00
2019-06-08T00:52:33.522Z,15.00
2019-06-08T00:55:07.587Z,14.90
2019-06-08T00:57:41.369Z,14.80
2019-06-08T01:00:15.311Z,14.70
2019-06-08T01:02:48.897Z,14.70
2019-06-08T01:05:23.898Z,14.60
2019-06-08T01:07:57.715Z,14.60
2019-06-08T01:10:31.485Z,14.70
2019-06-08T01:13:05.415Z,14.70
2019-06-08T01:15:39.187Z,14.70
2019-06-08T01:18:12.849Z,14.80
2019-06-08T01:20:50.267Z,14.60
2019-06-08T01:23:23.924Z,14.60
2019-06-08T01:25:57.547Z,14.70
2019-06-08T01:28:31.157Z,14.60
2019-06-08T01:31:04.847Z,14.70
2019-06-08T01:33:38.509Z,14.70
2019-06-08T01:36:12.229Z,14.70
2019-06-08T01:38:45.840Z,14.80
2019-06-08T01:41:19.789Z,14.80
2019-06-08T01:43:55.157Z,14.80
2019-06-08T01:46:30.184Z,14.80
2019-06-08T01:49:04.375Z,14.80
2019-06-08T01:51:38.100Z,14.90
2019-06-08T01:54:11.727Z,14.90
2019-06-08T01:56:45.525Z,15.00
2019-06-08T01:59:19.257Z,15.00
2019-06-08T02:01:52.906Z,15.00
2019-06-08T02:04:26.505Z,15.00
2019-06-08T02:07:00.149Z,15.00
2019-06-08T02:09:34.881Z,15.00
2019-06-08T02:12:08.604Z,15.00
2019-06-08T02:14:42.215Z,15.00
2019-06-08T02:17:15.886Z,15.00
2019-06-08T02:19:49.571Z,15.00
2019-06-08T02:22:23.242Z,15.00
2019-06-08T02:24:56.905Z,15.00
2019-06-08T02:27:31.407Z,15.00
2019-06-08T02:33:51.359Z,15.00
2019-06-08T02:36:25.392Z,15.00
2019-06-08T02:38:59.220Z,15.00
2019-06-08T02:41:35.304Z,15.00
2019-06-08T02:44:09.196Z,15.00
2019-06-08T02:50:50.463Z,15.00
2019-06-08T02:53:29.079Z,15.10
2019-06-08T02:56:04.546Z,15.00
2019-06-08T02:58:41.447Z,15.00
2019-06-08T03:01:17.570Z,15.00
2019-06-08T03:03:52.912Z,15.00
2019-06-08T03:06:30.375Z,15.00
2019-06-08T03:09:07.181Z,15.00
2019-06-08T03:11:42.009Z,15.00
2019-06-08T03:14:18.004Z,15.00
2019-06-08T03:16:51.989Z,15.10
2019-06-08T03:19:25.597Z,15.10
2019-06-08T03:21:59.226Z,15.10
2019-06-08T03:24:34.388Z,15.10
2019-06-08T03:27:08.118Z,15.10
2019-06-08T03:29:43.863Z,15.10
2019-06-08T03:32:17.957Z,15.10
2019-06-08T03:34:56.382Z,15.10
2019-06-08T03:37:26.859Z,15.20
2019-06-08T03:40:00.432Z,15.20
2019-06-08T03:42:34.053Z,15.20
2019-06-08T03:45:07.879Z,15.30
2019-06-08T03:47:43.494Z,15.30
2019-06-08T03:50:16.947Z,15.30
2019-06-08T03:52:50.583Z,15.30
2019-06-08T03:55:24.247Z,15.40
2019-06-08T03:57:57.875Z,15.50
2019-06-08T04:00:31.526Z,15.60
2019-06-08T04:03:05.581Z,15.70
2019-06-08T04:05:40.797Z,15.60
2019-06-08T04:08:14.535Z,15.60
2019-06-08T04:10:48.118Z,15.70
2019-06-08T04:13:21.776Z,15.70
2019-06-08T04:20:03.051Z,15.80
2019-06-08T04:22:16.956Z,15.90
2019-06-08T04:24:50.749Z,16.00
2019-06-08T04:27:24.487Z,16.00
2019-06-08T04:29:58.434Z,16.10
2019-06-08T04:36:18.143Z,16.20
2019-06-08T04:38:51.801Z,16.30
2019-06-08T04:41:25.476Z,16.30
2019-06-08T04:43:59.062Z,16.40
2019-06-08T04:46:32.663Z,16.40
2019-06-08T04:49:06.251Z,16.50
2019-06-08T04:51:40.735Z,16.70
2019-06-08T04:54:14.735Z,16.80
2019-06-08T04:56:49.332Z,16.70
2019-06-08T04:59:23.402Z,16.70
2019-06-08T05:01:56.992Z,16.90
2019-06-08T05:04:30.591Z,17.00
2019-06-08T05:07:04.248Z,17.10
2019-06-08T05:09:39.076Z,17.30
2019-06-08T05:12:13.004Z,17.40
2019-06-08T05:14:47.241Z,17.50
2019-06-08T05:17:20.971Z,17.70
2019-06-08T05:19:54.732Z,17.80
2019-06-08T05:22:28.324Z,18.00
2019-06-08T05:25:01.964Z,18.30
2019-06-08T05:27:35.559Z,18.50
2019-06-08T05:30:09.668Z,18.60
2019-06-08T05:32:43.538Z,18.90
2019-06-08T05:35:17.461Z,19.20
2019-06-08T05:37:51.042Z,19.40
2019-06-08T05:40:24.669Z,19.70
2019-06-08T05:42:58.328Z,20.10
2019-06-08T05:45:32.133Z,20.40
2019-06-08T05:48:05.899Z,20.60
2019-06-08T05:50:54.692Z,21.60
2019-06-08T05:53:14.808Z,22.50
2019-06-08T05:55:48.410Z,22.90
2019-06-08T05:58:22.032Z,23.10
2019-06-08T06:00:55.666Z,23.40
2019-06-08T06:03:29.251Z,24.10
2019-06-08T06:06:02.948Z,25.10
2019-06-08T06:08:36.531Z,26.00
2019-06-08T06:11:10.167Z,27.00
2019-06-08T06:13:45.072Z,27.80
2019-06-08T06:19:55.900Z,29.90
2019-06-08T06:22:29.487Z,30.70
2019-06-08T06:25:03.911Z,30.70
2019-06-08T06:27:37.627Z,30.90
2019-06-08T06:30:12.801Z,30.30
2019-06-08T06:36:32.683Z,29.90
2019-06-08T06:39:08.065Z,30.30
2019-06-08T06:41:41.886Z,30.30
2019-06-08T06:44:15.664Z,30.50
2019-06-08T06:46:50.148Z,31.20
2019-06-08T06:49:23.809Z,31.50
2019-06-08T06:51:57.452Z,31.50
2019-06-08T06:54:31.053Z,31.50
2019-06-08T06:57:04.777Z,31.60
2019-06-08T06:59:38.445Z,31.50
2019-06-08T07:02:12.339Z,31.70
2019-06-08T07:04:45.984Z,31.10
2019-06-08T07:07:19.547Z,31.20
2019-06-08T07:09:53.180Z,31.70
2019-06-08T07:12:26.818Z,32.30
2019-06-08T07:15:00.480Z,32.40
2019-06-08T07:17:34.175Z,32.10
2019-06-08T07:20:08.604Z,32.10
2019-06-08T07:22:42.462Z,31.50
2019-06-08T07:25:16.218Z,31.60
2019-06-08T07:27:50.525Z,31.30
2019-06-08T07:30:24.422Z,30.70
2019-06-08T07:32:59.207Z,30.10
2019-06-08T07:35:33.405Z,30.10
2019-06-08T07:38:07.179Z,29.50
2019-06-08T07:40:40.915Z,29.90
2019-06-08T07:43:14.588Z,30.40
2019-06-08T07:45:48.225Z,30.00
2019-06-08T07:48:21.808Z,29.90
2019-06-08T07:50:56.395Z,29.70
2019-06-08T07:53:30.310Z,29.60
2019-06-08T07:56:04.209Z,29.50
2019-06-08T07:58:38.957Z,29.50
2019-06-08T08:01:12.613Z,29.60
2019-06-08T08:03:46.216Z,29.20
2019-06-08T08:06:19.881Z,29.40
2019-06-08T08:08:54.819Z,29.20
2019-06-08T08:11:28.706Z,29.40
2019-06-08T08:14:02.296Z,29.50
2019-06-08T08:16:37.394Z,29.50
2019-06-08T08:19:11.057Z,29.60
2019-06-08T08:21:44.698Z,29.60
2019-06-08T08:24:18.299Z,29.60
2019-06-08T08:26:53.093Z,29.90
2019-06-08T08:29:28.185Z,30.00
2019-06-08T08:35:39.667Z,29.70
2019-06-08T08:38:13.346Z,29.50
2019-06-08T08:40:49.767Z,29.60
2019-06-08T08:43:23.123Z,29.70
2019-06-08T08:45:59.126Z,29.90
2019-06-08T08:52:18.271Z,29.50
2019-06-08T08:54:52.377Z,29.70
2019-06-08T08:57:26.051Z,29.80
2019-06-08T09:00:03.503Z,29.70
2019-06-08T09:02:37.297Z,29.50
2019-06-08T09:05:10.741Z,29.30
2019-06-08T09:07:44.440Z,29.40
2019-06-08T09:10:18.967Z,29.30
2019-06-08T09:12:53.794Z,29.20
2019-06-08T09:15:31.413Z,29.00
2019-06-08T09:18:04.095Z,28.80
2019-06-08T09:20:38.145Z,28.60
2019-06-08T09:23:16.273Z,28.50
2019-06-08T09:25:48.372Z,28.70
2019-06-08T09:28:22.216Z,28.80
2019-06-08T09:30:56.743Z,28.50
2019-06-08T09:33:31.080Z,28.50
2019-06-08T09:36:05.060Z,28.50
2019-06-08T09:38:39.566Z,28.40
2019-06-08T09:41:14.101Z,28.00
2019-06-08T09:43:48.719Z,27.60
2019-06-08T09:46:22.561Z,27.70
2019-06-08T09:48:59.503Z,27.80
2019-06-08T09:51:32.002Z,28.10
2019-06-08T09:54:08.670Z,28.40
2019-06-08T09:56:41.177Z,28.60
2019-06-08T09:59:15.629Z,28.70
2019-06-08T10:01:50.070Z,28.70
2019-06-08T10:04:25.608Z,28.70
2019-06-08T10:07:00.545Z,28.70
2019-06-08T10:09:34.211Z,28.80
2019-06-08T10:12:09.980Z,28.40
2019-06-08T10:14:43.173Z,28.20
2019-06-08T10:17:20.629Z,28.10
2019-06-08T10:19:52.074Z,28.30
2019-06-08T10:22:28.106Z,28.30
2019-06-08T10:25:04.454Z,28.10
2019-06-08T10:27:38.457Z,28.20
2019-06-08T10:30:11.929Z,28.00
2019-06-08T10:32:50.398Z,28.10
2019-06-08T10:35:21.143Z,28.10
2019-06-08T10:37:55.656Z,28.10
2019-06-08T10:40:30.257Z,28.20
2019-06-08T10:43:05.036Z,28.10
2019-06-08T10:45:39.263Z,27.90
2019-06-08T10:51:49.953Z,27.70
2019-06-08T10:54:23.526Z,27.90
2019-06-08T10:56:59.788Z,28.00
2019-06-08T10:59:32.536Z,28.10
2019-06-08T11:02:11.342Z,28.10
2019-06-08T11:08:28.587Z,28.00
2019-06-08T11:11:02.836Z,28.00
2019-06-08T11:13:37.416Z,27.90
2019-06-08T11:16:13.547Z,27.90
2019-06-08T11:18:50.801Z,27.90
2019-06-08T11:21:21.857Z,27.80
2019-06-08T11:24:10.424Z,27.80
2019-06-08T11:26:30.806Z,27.90
2019-06-08T11:29:05.049Z,27.80
2019-06-08T11:31:39.387Z,27.80
2019-06-08T11:34:13.272Z,27.80
2019-06-08T11:36:48.404Z,27.90
2019-06-08T11:39:22.299Z,27.90
2019-06-08T11:41:58.654Z,28.00
2019-06-08T11:44:31.231Z,28.10
2019-06-08T11:47:07.368Z,28.10
2019-06-08T11:49:40.812Z,27.90
2019-06-08T11:52:14.459Z,28.00
2019-06-08T11:54:48.164Z,28.00
2019-06-08T11:57:23.065Z,28.00
2019-06-08T11:59:58.443Z,28.00
2019-06-08T12:02:32.245Z,28.20
2019-06-08T12:05:11.249Z,28.30
2019-06-08T12:07:44.464Z,28.40
2019-06-08T12:10:18.204Z,28.10
2019-06-08T12:12:51.870Z,27.90
2019-06-08T12:15:25.472Z,27.70
2019-06-08T12:17:59.082Z,27.40
2019-06-08T12:20:32.685Z,27.30
2019-06-08T12:23:06.476Z,27.30
2019-06-08T12:25:40.050Z,27.20
2019-06-08T12:28:14.707Z,27.20
2019-06-08T12:30:48.482Z,27.00
2019-06-08T12:33:22.863Z,26.70
2019-06-08T12:35:57.879Z,25.60
2019-06-08T12:38:34.487Z,24.60
2019-06-08T12:41:09.137Z,23.80
2019-06-08T12:43:42.366Z,22.30
2019-06-08T12:46:16.961Z,21.50
2019-06-08T12:52:30.403Z,21.00
2019-06-08T12:55:12.543Z,20.70
2019-06-08T12:57:43.219Z,20.40
2019-06-08T13:00:19.707Z,20.00
2019-06-08T13:02:52.495Z,20.00
2019-06-08T13:09:14.671Z,20.00
2019-06-08T13:11:50.643Z,19.70
2019-06-08T13:14:23.868Z,19.30
2019-06-08T13:17:00.876Z,19.30
2019-06-08T13:19:32.735Z,19.40
2019-06-08T13:22:06.336Z,19.50
2019-06-08T13:24:39.968Z,19.70
2019-06-08T13:27:15.046Z,19.80
2019-06-08T13:29:49.199Z,20.10
2019-06-08T13:32:22.786Z,20.30
2019-06-08T13:34:58.275Z,20.60
2019-06-08T13:37:31.786Z,20.70
2019-06-08T13:40:08.127Z,20.90
2019-06-08T13:42:42.084Z,20.80
2019-06-08T13:45:18.379Z,20.40
2019-06-08T13:47:51.167Z,20.30
2019-06-08T13:50:24.830Z,20.10
2019-06-08T13:52:58.857Z,20.30
2019-06-08T13:55:47.598Z,20.20
2019-06-08T13:58:07.854Z,20.20
2019-06-08T14:00:41.459Z,20.20
2019-06-08T14:03:16.184Z,20.20
2019-06-08T14:05:50.300Z,20.30
2019-06-08T14:08:24.422Z,20.40
2019-06-08T14:11:00.938Z,20.30
2019-06-08T14:13:34.768Z,20.30
2019-06-08T14:16:11.571Z,20.30
2019-06-08T14:18:44.148Z,20.40
2019-06-08T14:21:25.689Z,20.60
2019-06-08T14:23:53.017Z,20.90
2019-06-08T14:26:26.647Z,20.90
2019-06-08T14:29:01.621Z,21.10
2019-06-08T14:31:37.943Z,21.20
2019-06-08T14:34:10.860Z,21.00
2019-06-08T14:36:44.431Z,21.10
2019-06-08T14:39:18.821Z,20.70
2019-06-08T14:41:53.329Z,20.90
2019-06-08T14:44:28.733Z,20.70
2019-06-08T14:47:03.975Z,20.60
2019-06-08T14:53:15.169Z,20.50
2019-06-08T14:55:56.722Z,20.40
2019-06-08T14:58:28.371Z,19.90
2019-06-08T15:01:00.010Z,19.80
2019-06-08T15:03:33.589Z,19.80
2019-06-08T15:09:44.824Z,19.80
2019-06-08T15:12:19.407Z,19.90
2019-06-08T15:14:53.176Z,20.20
2019-06-08T15:17:28.960Z,20.20
2019-06-08T15:20:02.075Z,20.10
2019-06-08T15:22:35.625Z,20.10
2019-06-08T15:25:11.207Z,19.90
2019-06-08T15:27:45.054Z,20.00
2019-06-08T15:30:19.391Z,20.00
2019-06-08T15:32:53.077Z,19.90
2019-06-08T15:35:27.313Z,20.00
2019-06-08T15:38:01.106Z,19.80
2019-06-08T15:40:34.736Z,19.90
2019-06-08T15:43:08.779Z,19.90
2019-06-08T15:45:42.515Z,19.80
2019-06-08T15:48:20.172Z,19.80
2019-06-08T15:50:51.356Z,19.80
2019-06-08T15:53:26.446Z,19.90
2019-06-08T15:56:00.687Z,19.90
2019-06-08T15:58:34.311Z,20.00
2019-06-08T16:01:07.885Z,20.00
2019-06-08T16:03:41.527Z,20.00
2019-06-08T16:06:15.111Z,20.00
2019-06-08T16:08:48.743Z,19.80
2019-06-08T16:11:22.489Z,19.80
2019-06-08T16:13:56.444Z,19.80
2019-06-08T16:16:31.146Z,19.80
2019-06-08T16:19:05.005Z,19.80
2019-06-08T16:21:38.712Z,19.70
2019-06-08T16:24:12.609Z,19.60
2019-06-08T16:26:53.226Z,19.60
2019-06-08T16:29:21.841Z,19.40
2019-06-08T16:31:55.503Z,19.50
2019-06-08T16:34:29.225Z,19.40
2019-06-08T16:37:03.004Z,19.30
2019-06-08T16:39:36.997Z,19.20
2019-06-08T16:42:10.599Z,19.10
2019-06-08T16:44:44.179Z,19.10
2019-06-08T16:47:17.879Z,19.10
2019-06-08T16:49:54.263Z,19.00
2019-06-08T16:52:28.424Z,19.00
2019-06-08T16:55:02.140Z,18.90
2019-06-08T16:57:39.134Z,18.80
2019-06-08T17:00:30.727Z,18.70
2019-06-08T17:02:46.706Z,18.50
2019-06-08T17:09:07.658Z,18.30
2019-06-08T17:11:41.246Z,18.30
2019-06-08T17:14:15.001Z,18.30
2019-06-08T17:16:48.697Z,18.30
2019-06-08T17:19:22.379Z,18.30
2019-06-08T17:25:42.788Z,18.40
2019-06-08T17:28:16.375Z,18.40
2019-06-08T17:30:50.329Z,18.30
2019-06-08T17:33:24.031Z,18.30
2019-06-08T17:35:57.642Z,18.30
2019-06-08T17:38:31.806Z,18.20
2019-06-08T17:41:05.657Z,18.10
2019-06-08T17:43:40.286Z,18.10
2019-06-08T17:46:13.944Z,18.10
2019-06-08T17:48:47.570Z,18.00
2019-06-08T17:51:21.823Z,18.00
2019-06-08T17:53:55.627Z,17.90
2019-06-08T17:56:29.264Z,17.90
2019-06-08T17:59:02.885Z,17.90
2019-06-08T18:01:37.700Z,18.00
2019-06-08T18:04:11.387Z,17.90
2019-06-08T18:06:47.248Z,17.90
2019-06-08T18:09:20.398Z,17.80
2019-06-08T18:11:53.978Z,17.80
2019-06-08T18:14:30.674Z,17.80
2019-06-08T18:17:02.917Z,17.80
2019-06-08T18:19:40.255Z,17.70
2019-06-08T18:22:15.468Z,17.70
2019-06-08T18:24:47.942Z,17.60
2019-06-08T18:27:21.632Z,17.60
2019-06-08T18:29:55.320Z,17.60
2019-06-08T18:32:28.984Z,17.50
2019-06-08T18:35:02.592Z,17.50
2019-06-08T18:37:39.365Z,17.60
2019-06-08T18:40:13.390Z,17.60
2019-06-08T18:42:48.708Z,17.60
2019-06-08T18:45:22.617Z,17.60
2019-06-08T18:47:57.729Z,17.50
2019-06-08T18:50:31.687Z,17.50
2019-06-08T18:53:07.077Z,17.60
2019-06-08T18:55:43.569Z,17.50
2019-06-08T18:58:22.185Z,17.50
2019-06-08T19:00:51.657Z,17.40
2019-06-08T19:03:25.367Z,17.40
2019-06-08T19:09:47.954Z,17.30
2019-06-08T19:12:21.141Z,17.20
2019-06-08T19:14:54.913Z,17.10
2019-06-08T19:17:28.582Z,17.20
2019-06-08T19:20:02.247Z,17.10
2019-06-08T19:26:13.158Z,17.00
2019-06-08T19:28:53.377Z,17.00
2019-06-08T19:31:22.326Z,17.00
2019-06-08T19:33:58.083Z,16.90
2019-06-08T19:36:31.245Z,16.80
2019-06-08T19:39:07.223Z,16.80
2019-06-08T19:41:41.487Z,16.70
2019-06-08T19:44:18.141Z,16.70
2019-06-08T19:46:53.211Z,16.60
2019-06-08T19:49:28.180Z,16.50
2019-06-08T19:52:01.953Z,16.40
2019-06-08T19:54:38.688Z,16.30
2019-06-08T19:57:10.921Z,16.20
2019-06-08T19:59:45.469Z,16.10
2019-06-08T20:02:19.226Z,16.10
2019-06-08T20:04:53.285Z,16.10
2019-06-08T20:07:27.992Z,16.00
2019-06-08T20:10:01.779Z,16.00
2019-06-08T20:12:37.202Z,15.90
2019-06-08T20:15:11.448Z,15.90
2019-06-08T20:17:46.204Z,15.80
2019-06-08T20:20:20.419Z,15.70
2019-06-08T20:22:54.925Z,15.70
2019-06-08T20:25:28.700Z,15.60
2019-06-08T20:28:02.320Z,15.60
2019-06-08T20:30:35.986Z,15.50
2019-06-08T20:33:09.655Z,15.50
2019-06-08T20:35:43.582Z,15.40
2019-06-08T20:38:17.682Z,15.40
2019-06-08T20:40:52.547Z,15.30
2019-06-08T20:43:26.574Z,15.30
2019-06-08T20:46:00.452Z,15.20
2019-06-08T20:48:34.044Z,15.20
2019-06-08T20:51:07.964Z,15.10
2019-06-08T20:53:42.372Z,15.10
2019-06-08T20:56:17.391Z,15.10
2019-06-08T20:58:52.509Z,15.00
2019-06-08T21:01:26.740Z,15.00
2019-06-08T21:04:00.338Z,15.00
2019-06-08T21:09:36.959Z,14.90
2019-06-08T21:12:09.878Z,14.80
2019-06-08T21:14:45.154Z,14.80
2019-06-08T21:17:18.798Z,14.70
2019-06-08T21:19:53.111Z,14.60
2019-06-08T21:26:03.907Z,14.50
2019-06-08T21:28:38.560Z,14.50
2019-06-08T21:31:12.610Z,14.40
2019-06-08T21:33:49.117Z,14.40
2019-06-08T21:36:21.610Z,14.30
2019-06-08T21:42:31.167Z,14.20
2019-06-08T21:45:09.650Z,14.20
2019-06-08T21:47:43.304Z,14.20
2019-06-08T21:50:18.629Z,14.10
2019-06-08T21:52:53.595Z,14.10
2019-06-08T21:55:27.627Z,14.00
2019-06-08T21:58:02.082Z,14.00
2019-06-08T22:00:42.799Z,13.90
2019-06-08T22:03:12.593Z,13.90
2019-06-08T22:05:47.295Z,13.90
2019-06-08T22:08:21.078Z,13.90
2019-06-08T22:10:54.704Z,13.80
2019-06-08T22:13:28.555Z,13.80
2019-06-08T22:16:04.120Z,13.80
2019-06-08T22:18:38.086Z,13.80
2019-06-08T22:21:11.857Z,13.80
2019-06-08T22:23:47.481Z,13.70
2019-06-08T22:26:20.672Z,13.80
2019-06-08T22:28:55.373Z,13.70
2019-06-08T22:31:29.048Z,13.70
2019-06-08T22:34:04.012Z,13.80
2019-06-08T22:36:37.732Z,13.80
2019-06-08T22:39:11.350Z,13.80
2019-06-08T22:41:44.991Z,13.80
2019-06-08T22:44:18.592Z,13.80
2019-06-08T22:46:53.845Z,13.70
2019-06-08T22:49:28.087Z,13.60
2019-06-08T22:52:04.810Z,13.60
2019-06-08T22:54:38.852Z,13.60
2019-06-08T22:57:12.474Z,13.60
2019-06-08T22:59:47.724Z,13.70
2019-06-08T23:02:21.504Z,13.70
2019-06-08T23:04:56.164Z,13.70
2019-06-08T23:11:08.521Z,13.80
2019-06-08T23:13:42.368Z,13.80
2019-06-08T23:16:18.035Z,13.80
2019-06-08T23:18:51.359Z,13.80
2019-06-08T23:21:27.396Z,13.80
2019-06-08T23:27:48.366Z,13.80
2019-06-08T23:30:22.244Z,13.70
2019-06-08T23:32:57.290Z,13.70
2019-06-08T23:35:44.348Z,13.60
2019-06-08T23:38:08.086Z,13.60
2019-06-08T23:40:43.634Z,13.60
2019-06-08T23:43:18.208Z,13.60
2019-06-08T23:45:51.900Z,13.50
2019-06-08T23:48:27.767Z,13.40
2019-06-08T23:51:00.824Z,13.40
2019-06-08T23:53:35.444Z,13.40
2019-06-08T23:56:11.745Z,13.30
2019-06-08T23:58:44.586Z,13.30
